createdAt,value
2023-03-28T00:01:48.722Z,4.37
2023-03-28T00:04:23.039Z,4.29
2023-03-28T00:06:53.708Z,4.38
2023-03-28T00:09:23.816Z,4.46
2023-03-28T00:11:53.628Z,4.45
2023-03-28T00:14:23.496Z,4.52
2023-03-28T00:16:55.838Z,4.56
2023-03-28T00:19:25.719Z,4.41
2023-03-28T00:21:57.682Z,4.26
2023-03-28T00:24:28.354Z,4.40
2023-03-28T00:27:00.586Z,4.30
2023-03-28T00:29:31.335Z,4.05
2023-03-28T00:32:03.977Z,4.36
2023-03-28T00:34:33.757Z,4.29
2023-03-28T00:37:04.836Z,4.22
2023-03-28T00:39:34.730Z,4.28
2023-03-28T00:42:04.664Z,4.18
2023-03-28T00:44:49.661Z,4.17
2023-03-28T00:47:36.965Z,4.08
2023-03-28T00:50:12.519Z,4.06
2023-03-28T00:52:46.741Z,4.03
2023-03-28T00:55:22.202Z,4.11
2023-03-28T00:57:53.235Z,4.07
2023-03-28T01:00:23.753Z,3.96
2023-03-28T01:03:01.756Z,3.94
2023-03-28T01:05:35.471Z,4.15
2023-03-28T01:08:10.965Z,4.13
2023-03-28T01:10:40.968Z,4.27
2023-03-28T01:13:12.236Z,4.21
2023-03-28T01:15:42.891Z,4.10
2023-03-28T01:18:16.551Z,4.10
2023-03-28T01:21:10.530Z,4.25
2023-03-28T01:24:12.161Z,4.21
2023-03-28T01:26:51.757Z,4.31
2023-03-28T01:30:04.833Z,4.31
2023-03-28T01:33:24.475Z,4.15
2023-03-28T01:36:33.885Z,4.33
2023-03-28T01:39:16.159Z,4.27
2023-03-28T01:41:53.512Z,4.30
2023-03-28T01:44:33.816Z,4.13
2023-03-28T01:47:11.122Z,4.18
2023-03-28T01:49:47.365Z,4.17
2023-03-28T01:52:23.355Z,4.21
2023-03-28T01:55:07.705Z,4.13
2023-03-28T01:57:44.208Z,4.11
2023-03-28T02:00:22.496Z,4.12
2023-03-28T02:03:18.843Z,4.12
2023-03-28T02:05:58.553Z,4.20
2023-03-28T02:08:31.869Z,4.06
2023-03-28T02:11:22.931Z,4.22
2023-03-28T02:14:24.225Z,4.12
2023-03-28T02:17:19.394Z,4.09
2023-03-28T02:20:14.802Z,4.22
2023-03-28T02:23:04.200Z,4.09
2023-03-28T02:25:49.978Z,4.17
2023-03-28T02:28:48.924Z,4.07
2023-03-28T02:31:40.846Z,3.98
2023-03-28T02:34:12.442Z,3.96
2023-03-28T02:36:50.320Z,3.97
2023-03-28T02:39:46.995Z,4.01
2023-03-28T02:42:37.771Z,3.96
2023-03-28T02:45:25.909Z,3.97
2023-03-28T02:48:08.368Z,3.87
2023-03-28T02:50:46.653Z,3.92
2023-03-28T02:53:27.278Z,3.94
2023-03-28T02:56:02.157Z,3.93
2023-03-28T02:58:56.419Z,3.86
2023-03-28T03:01:29.395Z,3.92
2023-03-28T03:04:00.890Z,3.88
2023-03-28T03:06:30.729Z,3.75
2023-03-28T03:09:00.987Z,3.78
2023-03-28T03:11:30.917Z,3.75
2023-03-28T03:14:01.254Z,3.80
2023-03-28T03:16:38.701Z,3.86
2023-03-28T03:19:10.236Z,3.94
2023-03-28T03:21:41.714Z,3.87
2023-03-28T03:24:12.270Z,3.96
2023-03-28T03:26:45.871Z,4.07
2023-03-28T03:29:19.251Z,4.05
2023-03-28T03:31:51.889Z,4.08
2023-03-28T03:34:41.557Z,4.06
2023-03-28T03:37:11.895Z,4.11
2023-03-28T03:39:41.646Z,4.13
2023-03-28T03:42:11.479Z,4.12
2023-03-28T03:44:41.257Z,4.14
2023-03-28T03:47:13.979Z,4.12
2023-03-28T03:49:43.751Z,4.10
2023-03-28T03:52:14.592Z,4.09
2023-03-28T03:54:44.566Z,4.21
2023-03-28T03:57:15.686Z,4.04
2023-03-28T03:59:45.593Z,4.08
2023-03-28T04:02:21.726Z,4.25
2023-03-28T04:05:02.252Z,4.18
2023-03-28T04:07:47.081Z,4.19
2023-03-28T04:10:29.411Z,4.22
2023-03-28T04:12:59.178Z,4.19
2023-03-28T04:15:28.981Z,4.23
2023-03-28T04:18:20.707Z,4.20
2023-03-28T04:20:55.942Z,4.21
2023-03-28T04:23:43.811Z,4.16
2023-03-28T04:26:39.757Z,4.14
2023-03-28T04:29:13.611Z,4.11
2023-03-28T04:31:50.149Z,4.22
2023-03-28T04:34:45.983Z,4.17
2023-03-28T04:37:21.580Z,4.16
2023-03-28T04:39:55.982Z,4.14
2023-03-28T04:42:49.424Z,3.98
2023-03-28T04:45:26.581Z,3.93
2023-03-28T04:47:57.352Z,3.99
2023-03-28T04:50:30.852Z,3.88
2023-03-28T04:53:00.586Z,3.93
2023-03-28T04:55:31.739Z,3.82
2023-03-28T04:58:03.539Z,3.82
2023-03-28T05:00:33.605Z,3.78
2023-03-28T05:03:05.030Z,3.88
2023-03-28T05:05:48.348Z,3.63
2023-03-28T05:08:20.423Z,3.81
2023-03-28T05:10:50.667Z,3.94
2023-03-28T05:13:21.354Z,3.97
2023-03-28T05:16:03.333Z,3.93
2023-03-28T05:18:59.174Z,3.85
2023-03-28T05:21:51.930Z,4.03
2023-03-28T05:24:21.688Z,4.01
2023-03-28T05:26:51.462Z,3.96
2023-03-28T05:29:25.501Z,4.07
2023-03-28T05:31:56.106Z,4.12
2023-03-28T05:34:32.216Z,4.12
2023-03-28T05:37:04.775Z,4.28
2023-03-28T05:39:45.240Z,4.26
2023-03-28T05:42:16.117Z,4.14
2023-03-28T05:44:45.989Z,4.06
2023-03-28T05:47:39.290Z,3.83
2023-03-28T05:50:10.971Z,4.16
2023-03-28T05:52:43.483Z,4.10
2023-03-28T05:55:13.471Z,3.85
2023-03-28T05:57:44.308Z,4.05
2023-03-28T06:00:19.517Z,3.96
2023-03-28T06:02:50.698Z,3.99
2023-03-28T06:05:24.108Z,4.03
2023-03-28T06:07:56.975Z,4.09
2023-03-28T06:10:27.732Z,4.10
2023-03-28T06:13:17.647Z,4.08
2023-03-28T06:15:49.558Z,4.06
2023-03-28T06:18:21.126Z,4.17
2023-03-28T06:20:52.582Z,4.27
2023-03-28T06:23:25.972Z,4.42
2023-03-28T06:25:56.053Z,4.22
2023-03-28T06:28:26.355Z,4.39
2023-03-28T06:31:31.573Z,4.44
2023-03-28T06:34:01.414Z,4.48
2023-03-28T06:36:31.476Z,4.50
2023-03-28T06:39:03.884Z,4.60
2023-03-28T06:41:35.160Z,4.72
2023-03-28T06:44:06.034Z,4.64
2023-03-28T06:46:54.499Z,4.60
2023-03-28T06:49:24.423Z,4.64
2023-03-28T06:52:12.692Z,4.76
2023-03-28T06:54:48.489Z,4.87
2023-03-28T06:57:18.838Z,4.93
2023-03-28T06:59:51.742Z,4.86
2023-03-28T07:02:27.871Z,5.08
2023-03-28T07:05:03.346Z,5.16
2023-03-28T07:07:33.288Z,5.24
2023-03-28T07:10:06.057Z,5.25
2023-03-28T07:12:36.053Z,5.46
2023-03-28T07:15:06.161Z,5.52
2023-03-28T07:17:36.102Z,5.52
2023-03-28T07:20:06.914Z,5.68
2023-03-28T07:22:36.745Z,5.68
2023-03-28T07:25:10.809Z,5.75
2023-03-28T07:27:44.049Z,5.42
2023-03-28T07:30:19.224Z,5.81
2023-03-28T07:32:58.193Z,5.37
2023-03-28T07:35:36.482Z,5.71
2023-03-28T07:38:08.164Z,5.60
2023-03-28T07:40:53.665Z,5.70
2023-03-28T07:43:26.303Z,5.79
2023-03-28T07:46:07.422Z,6.17
2023-03-28T07:48:41.626Z,5.85
2023-03-28T07:51:15.873Z,6.08
2023-03-28T07:53:49.192Z,6.47
2023-03-28T07:56:26.804Z,6.68
2023-03-28T07:59:16.118Z,6.38
2023-03-28T08:01:53.824Z,6.25
2023-03-28T08:04:27.760Z,6.36
2023-03-28T08:07:08.703Z,6.33
2023-03-28T08:09:43.410Z,6.46
2023-03-28T08:12:24.192Z,6.33
2023-03-28T08:14:56.363Z,6.38
2023-03-28T08:17:32.303Z,6.77
2023-03-28T08:20:07.504Z,6.29
2023-03-28T08:23:04.178Z,6.42
2023-03-28T08:25:58.447Z,6.59
2023-03-28T08:28:39.199Z,7.21
2023-03-28T08:31:14.972Z,6.93
2023-03-28T08:33:52.327Z,6.88
2023-03-28T08:36:31.847Z,6.99
2023-03-28T08:39:06.609Z,7.43
2023-03-28T08:41:59.426Z,7.09
2023-03-28T08:44:58.657Z,7.47
2023-03-28T08:47:33.916Z,7.60
2023-03-28T08:50:13.430Z,7.41
2023-03-28T08:52:49.528Z,7.51
2023-03-28T08:55:36.636Z,7.54
2023-03-28T08:58:14.201Z,7.27
2023-03-28T11:59:13.542Z,10.90
2023-03-28T13:02:14.798Z,10.21
2023-03-28T13:05:28.253Z,10.90
2023-03-28T13:09:45.240Z,10.74
2023-03-28T13:13:30.334Z,10.86
2023-03-28T13:17:46.421Z,9.73
2023-03-28T13:22:03.037Z,10.44
2023-03-28T13:25:35.919Z,10.91
2023-03-28T13:36:51.958Z,10.06
2023-03-28T13:43:57.527Z,11.16
2023-03-28T13:46:36.064Z,11.25
2023-03-28T13:49:10.495Z,11.03
2023-03-28T13:51:47.888Z,11.00
2023-03-28T13:54:18.061Z,11.12
2023-03-28T13:56:49.206Z,11.16
2023-03-28T13:59:21.314Z,11.28
2023-03-28T14:01:52.906Z,11.54
2023-03-28T14:04:24.304Z,11.59
2023-03-28T14:06:57.886Z,11.68
2023-03-28T14:09:34.359Z,11.55
2023-03-28T14:12:07.468Z,11.42
2023-03-28T14:14:40.480Z,11.32
2023-03-28T14:17:14.973Z,11.40
2023-03-28T14:19:48.631Z,11.42
2023-03-28T14:22:23.671Z,11.23
2023-03-28T14:24:55.856Z,11.05
2023-03-28T14:27:38.248Z,10.87
2023-03-28T14:30:20.597Z,10.93
2023-03-28T14:33:01.580Z,10.82
2023-03-28T14:35:33.199Z,10.98
2023-03-28T14:38:07.390Z,11.25
2023-03-28T14:40:39.823Z,11.27
2023-03-28T14:43:22.529Z,11.17
2023-03-28T14:45:56.405Z,11.47
2023-03-28T14:48:29.362Z,11.34
2023-03-28T14:51:04.132Z,11.21
2023-03-28T14:53:39.996Z,11.15
2023-03-28T14:56:16.456Z,10.46
2023-03-28T14:58:50.147Z,10.79
2023-03-28T15:01:23.688Z,10.98
2023-03-28T15:03:59.404Z,10.99
2023-03-28T15:06:29.738Z,10.74
2023-03-28T15:09:11.387Z,10.89
2023-03-28T15:11:44.848Z,10.52
2023-03-28T15:14:21.921Z,10.26
2023-03-28T15:16:52.140Z,10.40
2023-03-28T15:19:27.352Z,10.58
2023-03-28T15:22:00.588Z,10.27
2023-03-28T15:24:34.176Z,10.15
2023-03-28T15:27:04.761Z,10.16
2023-03-28T15:29:38.601Z,10.15
2023-03-28T15:32:14.752Z,10.24
2023-03-28T15:34:47.852Z,10.31
2023-03-28T15:37:22.707Z,10.26
2023-03-28T15:39:55.449Z,10.43
2023-03-28T15:42:37.292Z,10.26
2023-03-28T15:45:27.217Z,10.36
2023-03-28T15:47:58.648Z,10.24
2023-03-28T15:50:33.372Z,10.35
2023-03-28T15:53:06.549Z,10.42
2023-03-28T15:55:38.963Z,10.52
2023-03-28T15:58:09.168Z,10.29
2023-03-28T16:00:46.895Z,9.92
2023-03-28T16:03:34.723Z,9.51
2023-03-28T16:06:30.798Z,9.92
2023-03-28T16:09:17.138Z,9.93
2023-03-28T16:11:52.849Z,9.81
2023-03-28T16:14:49.718Z,9.71
2023-03-28T16:17:27.264Z,9.54
2023-03-28T16:20:16.566Z,9.52
2023-03-28T16:22:46.918Z,9.39
2023-03-28T16:25:17.485Z,9.46
2023-03-28T16:27:49.898Z,9.54
2023-03-28T16:30:23.275Z,9.66
2023-03-28T16:32:53.115Z,9.69
2023-03-28T16:35:23.066Z,9.66
2023-03-28T16:37:52.898Z,9.85
2023-03-28T16:40:22.792Z,9.76
2023-03-28T16:42:55.664Z,9.51
2023-03-28T16:45:25.641Z,9.62
2023-03-28T16:47:55.585Z,9.53
2023-03-28T16:50:25.396Z,9.60
2023-03-28T16:52:55.179Z,9.47
2023-03-28T16:55:24.955Z,9.84
2023-03-28T16:57:57.326Z,9.56
2023-03-28T17:00:35.291Z,9.72
2023-03-28T17:03:05.467Z,9.61
2023-03-28T17:05:35.405Z,9.68
2023-03-28T17:08:05.348Z,9.89
2023-03-28T17:10:35.395Z,9.86
2023-03-28T17:13:07.804Z,10.06
2023-03-28T17:15:38.257Z,9.94
2023-03-28T17:18:08.376Z,9.89
2023-03-28T17:20:38.302Z,9.91
2023-03-28T17:23:08.053Z,9.95
2023-03-28T17:25:48.217Z,10.02
2023-03-28T17:28:24.613Z,10.11
2023-03-28T17:30:54.451Z,10.11
2023-03-28T17:33:25.033Z,9.86
2023-03-28T17:35:54.863Z,9.99
2023-03-28T17:38:24.684Z,9.89
2023-03-28T17:40:56.527Z,9.72
2023-03-28T17:43:28.842Z,9.85
2023-03-28T17:45:58.753Z,9.75
2023-03-28T17:48:28.831Z,9.87
2023-03-28T17:50:58.665Z,9.83
2023-03-28T17:53:28.428Z,9.82
2023-03-28T17:55:59.205Z,9.61
2023-03-28T17:58:32.013Z,9.90
2023-03-28T18:01:02.281Z,9.88
2023-03-28T18:03:32.551Z,9.81
2023-03-28T18:06:24.356Z,9.72
2023-03-28T18:08:54.094Z,9.77
2023-03-28T18:11:24.184Z,9.91
2023-03-28T18:13:58.965Z,9.94
2023-03-28T18:16:29.289Z,9.89
2023-03-28T18:18:59.707Z,9.90
2023-03-28T18:21:30.286Z,9.91
2023-03-28T18:23:59.995Z,9.86
2023-03-28T18:26:31.740Z,10.51
2023-03-28T18:29:04.041Z,9.94
2023-03-28T18:31:34.003Z,9.88
2023-03-28T18:34:05.328Z,9.86
2023-03-28T18:36:37.031Z,9.82
2023-03-28T18:39:10.538Z,9.78
2023-03-28T18:41:40.968Z,9.61
2023-03-28T18:44:13.629Z,9.67
2023-03-28T18:46:43.564Z,9.57
2023-03-28T18:49:14.257Z,9.61
2023-03-28T18:51:44.065Z,9.62
2023-03-28T18:54:13.775Z,9.66
2023-03-28T18:56:43.716Z,9.80
2023-03-28T18:59:17.783Z,9.81
2023-03-28T19:01:51.685Z,9.75
2023-03-28T19:04:23.388Z,9.90
2023-03-28T19:06:53.583Z,9.87
2023-03-28T19:09:23.575Z,9.80
2023-03-28T19:11:55.227Z,9.99
2023-03-28T19:14:27.597Z,10.02
2023-03-28T19:16:57.451Z,9.94
2023-03-28T19:19:27.861Z,9.72
2023-03-28T19:21:57.766Z,9.92
2023-03-28T19:24:27.565Z,10.02
2023-03-28T19:26:59.343Z,10.07
2023-03-28T19:29:32.276Z,10.09
2023-03-28T19:32:02.078Z,10.05
2023-03-28T19:34:31.909Z,9.97
2023-03-28T19:37:02.038Z,10.04
2023-03-28T19:39:31.764Z,9.97
2023-03-28T19:42:01.541Z,10.01
2023-03-28T19:44:33.997Z,9.90
2023-03-28T19:47:03.866Z,9.80
2023-03-28T19:49:33.741Z,9.78
2023-03-28T19:52:05.369Z,9.66
2023-03-28T19:54:35.097Z,9.67
2023-03-28T19:57:07.563Z,9.63
2023-03-28T19:59:40.893Z,9.56
2023-03-28T20:02:12.802Z,9.38
2023-03-28T20:04:42.564Z,9.42
2023-03-28T20:07:12.857Z,9.09
2023-03-28T20:09:48.827Z,9.30
2023-03-28T20:12:19.166Z,9.10
2023-03-28T20:14:51.516Z,9.30
2023-03-28T20:17:21.254Z,9.31
2023-03-28T20:19:51.710Z,9.32
2023-03-28T20:22:24.539Z,9.36
2023-03-28T20:24:54.417Z,9.33
2023-03-28T20:27:25.240Z,9.51
2023-03-28T20:29:58.111Z,9.59
2023-03-28T20:32:27.944Z,9.55
2023-03-28T20:34:57.667Z,9.57
2023-03-28T20:37:27.555Z,9.58
2023-03-28T20:39:57.487Z,9.41
2023-03-28T20:42:30.272Z,9.61
2023-03-28T20:45:03.015Z,9.58
2023-03-28T20:47:32.854Z,9.44
2023-03-28T20:50:05.786Z,9.38
2023-03-28T20:52:38.907Z,9.52
2023-03-28T20:55:10.378Z,9.59
2023-03-28T20:57:41.970Z,9.50
2023-03-28T21:00:17.114Z,9.80
2023-03-28T21:02:54.150Z,9.51
2023-03-28T21:05:24.992Z,9.47
2023-03-28T21:07:55.575Z,9.35
2023-03-28T21:10:25.707Z,9.38
2023-03-28T21:12:55.413Z,9.28
2023-03-28T21:15:29.206Z,9.12
2023-03-28T21:17:59.297Z,8.85
2023-03-28T21:20:29.239Z,8.92
2023-03-28T21:22:59.944Z,8.96
2023-03-28T21:25:29.641Z,8.83
2023-03-28T21:27:59.475Z,8.94
2023-03-28T21:30:31.787Z,8.97
2023-03-28T21:33:04.020Z,8.98
2023-03-28T21:35:34.208Z,9.00
2023-03-28T21:38:04.045Z,9.02
2023-03-28T21:40:33.786Z,8.89
2023-03-28T21:43:03.597Z,8.72
2023-03-28T21:45:36.269Z,8.56
2023-03-28T21:48:06.269Z,8.69
2023-03-28T21:50:39.004Z,8.50
2023-03-28T21:53:08.747Z,8.71
2023-03-28T21:55:38.552Z,8.61
2023-03-28T21:58:08.258Z,8.62
2023-03-28T22:00:40.974Z,8.75
2023-03-28T22:03:11.156Z,8.75
2023-03-28T22:05:43.132Z,8.71
2023-03-28T22:08:13.710Z,8.71
2023-03-28T22:10:47.874Z,8.74
2023-03-28T22:13:17.860Z,8.56
2023-03-28T22:15:50.178Z,8.70
2023-03-28T22:18:20.018Z,8.48
2023-03-28T22:20:53.564Z,8.69
2023-03-28T22:23:24.516Z,8.55
2023-03-28T22:25:56.722Z,8.58
2023-03-28T22:28:26.866Z,8.38
2023-03-28T22:30:59.445Z,8.33
2023-03-28T22:33:32.212Z,8.34
2023-03-28T22:36:02.001Z,8.31
2023-03-28T22:38:31.786Z,8.07
2023-03-28T22:41:01.812Z,8.02
2023-03-28T22:43:32.140Z,7.92
2023-03-28T22:46:05.718Z,8.10
2023-03-28T22:48:38.295Z,8.06
2023-03-28T22:51:12.102Z,7.99
2023-03-28T22:53:42.938Z,7.71
2023-03-28T22:56:12.741Z,7.90
2023-03-28T22:58:42.796Z,7.84
2023-03-28T23:01:15.499Z,7.87
2023-03-28T23:03:45.188Z,7.96
2023-03-28T23:06:14.904Z,7.97
2023-03-28T23:08:44.606Z,8.02
2023-03-28T23:11:14.356Z,8.13
2023-03-28T23:13:44.096Z,8.01
2023-03-28T23:16:16.499Z,7.90
2023-03-28T23:18:46.522Z,8.33
2023-03-28T23:21:16.223Z,8.34
2023-03-28T23:23:46.639Z,8.40
2023-03-28T23:26:17.971Z,8.33
2023-03-28T23:28:48.405Z,8.24
2023-03-28T23:31:21.130Z,8.01
2023-03-28T23:33:50.912Z,8.24
2023-03-28T23:36:21.225Z,8.23
2023-03-28T23:38:51.513Z,8.11
2023-03-28T23:41:21.292Z,7.92
2023-03-28T23:43:50.966Z,7.99
2023-03-28T23:46:23.381Z,8.05
2023-03-28T23:48:53.485Z,7.96
2023-03-28T23:51:24.530Z,7.96
2023-03-28T23:53:54.256Z,8.06
2023-03-28T23:56:24.060Z,8.11
2023-03-28T23:58:54.430Z,8.19
